Terminal Aerodrome Forecast
Issued by NWS Wakefield, VA

Home | Current Version | Previous Version | Text Only | Print | Product List | Glossary On
Versions: 1 2 3 4 5 6 7 8 9 10 11 12 13 14 15 16 17 18 19 20
000
FTUS41 KAKQ 270500 RRA
TAFSBY
TAF
KSBY 270548Z 2706/2806 35014G22KT 6SM -SN BR OVC012
     FM270700 34013G22KT 3SM -SN BR OVC009
     FM271800 32015G22KT P6SM OVC015
     FM272200 31012KT P6SM BKN025=

USA.gov is the U.S. government's official web portal to all federal, state and local government web resources and services.